Details From YBMA - Mount Isa
To YBRK - Rockhampton
Flight Number -
Tags Generated
Created
Modified
Stats Distance 633 nm / 1,173 km
Max Altitude 0 ft / 0 m
Waypoints 3
Social Downloads 2
Likes 0
Share VATSIM

Download

Looking for another format? Having issues loading an existing format? Contact us
Advertisement - Login to hide

Notes

Generated

Route

YBMA RK YBRK

ID Type Via Altitude Latitude Longitude Leg Dist Tot Dist Heading (true) Name
O YBMA APT - 0 ft / 0 m -20.65894˚ 139.48442˚ - 0 nm - -
RK VOR - 0 ft / 0 m -23.38278˚ 150.47167˚ 633 nm 633 nm 107° / 103° ROCKHAMPTON VOR-DME
O YBRK APT - 0 ft / 0 m -23.38245˚ 150.46540˚ 0 nm 633 nm 273° / 273° Rockhampton

Altitude Profile

Advertisement - Login to hide

Weather


0- 5 10 15 20 25 30 35+ Temperature / ° C

Clouds and Precipitation
Forecast for 2017-12-16 00:00 UTC. Updated an hour ago

Ground ~20,000 ft ~40,000 ft Winds

YBMA

Details ICAO YBMA (ISA)
Name Mount Isa
Region Australia
Timezone Australia/Brisbane (UTC+10.0)
Stats Elevation 1,121 ft / 342 m (AMSL)
Location -20.666369° 139.488443°
Runways 1
Magnetic Variation 5.691° E

METAR

YBMA 152200Z AUTO 01007KT //// // NCD 31/19 Q1011

Decode

TAF

Not found

Departure Runways

ID Width Length Bearing (true) Bearing (mag) Surface Threshold Offset Overrun Length
16 148 ft / 45 m 8,859 ft / 2,700 m 167.80° 162.11° Asphalt 210 ft / 64 m 79 ft / 24 m
34 148 ft / 45 m 8,859 ft / 2,700 m 347.80° 342.11° Asphalt 213 ft / 65 m 49 ft / 15 m

YBRK

Details ICAO YBRK (ROK)
Name Rockhampton
Region Australia
Timezone Australia/Brisbane (UTC+10.0)
Stats Elevation 34 ft / 10 m (AMSL)
Location -23.378793° 150.473288°
Runways 2
Magnetic Variation 9.207° E

METAR

YBRK 152200Z AUTO 11008KT 9999 // BKN029 BKN036 OVC046 25/21 Q1014

Decode

TAF

TAF TAF YBRK 151731Z 1518/1618 12006KT 9999 FEW020 FM152200 08012KT 9999 FEW035 FM161200 12006KT 9999 FEW020

Decode

Destination Runways

ID Width Length Bearing (true) Bearing (mag) Surface Threshold Offset Overrun Length
04 102 ft / 31 m 5,395 ft / 1,644 m 52.34° 43.13° Asphalt 0 ft / 0 m 20 ft / 6 m
15 148 ft / 45 m 8,649 ft / 2,636 m 157.80° 148.59° Asphalt 0 ft / 0 m 0 ft / 0 m
22 102 ft / 31 m 5,395 ft / 1,644 m 232.34° 223.13° Asphalt 0 ft / 0 m 0 ft / 0 m
33 148 ft / 45 m 8,649 ft / 2,636 m 337.80° 328.59° Asphalt 0 ft / 0 m 0 ft / 0 m